sensor_id;sensor_type;location;lat;lon;timestamp;temperature;humidity
52036;DHT22;38046;49.448;32.074;2022-07-17T00:02:14;21.70;58.30
52036;DHT22;38046;49.448;32.074;2022-07-17T00:04:40;21.70;58.30
52036;DHT22;38046;49.448;32.074;2022-07-17T00:07:06;21.70;58.30
52036;DHT22;38046;49.448;32.074;2022-07-17T00:09:31;21.70;58.30
52036;DHT22;38046;49.448;32.074;2022-07-17T00:11:57;21.60;58.60
52036;DHT22;38046;49.448;32.074;2022-07-17T00:14:23;21.70;58.70
52036;DHT22;38046;49.448;32.074;2022-07-17T00:16:49;21.60;58.90
52036;DHT22;38046;49.448;32.074;2022-07-17T00:19:14;21.60;59.20
52036;DHT22;38046;49.448;32.074;2022-07-17T00:21:40;21.60;59.60
52036;DHT22;38046;49.448;32.074;2022-07-17T00:24:06;21.60;60.00
52036;DHT22;38046;49.448;32.074;2022-07-17T00:26:32;21.50;60.40
52036;DHT22;38046;49.448;32.074;2022-07-17T00:28:59;21.50;60.70
52036;DHT22;38046;49.448;32.074;2022-07-17T00:31:25;21.50;61.10
52036;DHT22;38046;49.448;32.074;2022-07-17T00:33:50;21.50;62.10
52036;DHT22;38046;49.448;32.074;2022-07-17T00:36:16;21.50;62.10
52036;DHT22;38046;49.448;32.074;2022-07-17T00:38:42;21.40;62.60
52036;DHT22;38046;49.448;32.074;2022-07-17T00:41:07;21.40;63.00
52036;DHT22;38046;49.448;32.074;2022-07-17T00:43:33;21.40;63.60
52036;DHT22;38046;49.448;32.074;2022-07-17T00:46:01;21.30;63.80
52036;DHT22;38046;49.448;32.074;2022-07-17T00:48:27;21.30;64.20
52036;DHT22;38046;49.448;32.074;2022-07-17T00:50:53;21.30;64.50
52036;DHT22;38046;49.448;32.074;2022-07-17T00:53:19;21.30;64.70
52036;DHT22;38046;49.448;32.074;2022-07-17T00:55:46;21.30;64.70
52036;DHT22;38046;49.448;32.074;2022-07-17T00:58:22;21.30;65.20
52036;DHT22;38046;49.448;32.074;2022-07-17T01:00:50;21.30;65.30
52036;DHT22;38046;49.448;32.074;2022-07-17T01:03:18;21.30;65.60
52036;DHT22;38046;49.448;32.074;2022-07-17T01:05:43;21.30;65.60
52036;DHT22;38046;49.448;32.074;2022-07-17T01:08:09;21.30;65.70
52036;DHT22;38046;49.448;32.074;2022-07-17T01:10:35;21.20;65.80
52036;DHT22;38046;49.448;32.074;2022-07-17T01:13:01;21.20;65.80
52036;DHT22;38046;49.448;32.074;2022-07-17T01:15:27;21.20;65.70
52036;DHT22;38046;49.448;32.074;2022-07-17T01:17:54;21.20;65.80
52036;DHT22;38046;49.448;32.074;2022-07-17T01:20:20;21.20;66.10
52036;DHT22;38046;49.448;32.074;2022-07-17T01:22:48;21.20;65.90
52036;DHT22;38046;49.448;32.074;2022-07-17T01:25:18;21.10;65.90
52036;DHT22;38046;49.448;32.074;2022-07-17T01:27:44;21.10;65.90
52036;DHT22;38046;49.448;32.074;2022-07-17T01:30:10;21.10;66.00
52036;DHT22;38046;49.448;32.074;2022-07-17T01:32:40;21.10;66.00
52036;DHT22;38046;49.448;32.074;2022-07-17T01:35:07;21.10;66.20
52036;DHT22;38046;49.448;32.074;2022-07-17T01:37:34;21.10;66.50
52036;DHT22;38046;49.448;32.074;2022-07-17T01:40:00;21.10;66.60
52036;DHT22;38046;49.448;32.074;2022-07-17T01:42:27;21.10;66.70
52036;DHT22;38046;49.448;32.074;2022-07-17T01:44:54;21.10;66.40
52036;DHT22;38046;49.448;32.074;2022-07-17T01:47:20;21.00;66.20
52036;DHT22;38046;49.448;32.074;2022-07-17T01:49:54;21.00;66.20
52036;DHT22;38046;49.448;32.074;2022-07-17T01:52:22;21.00;66.20
52036;DHT22;38046;49.448;32.074;2022-07-17T01:54:48;20.90;66.20
52036;DHT22;38046;49.448;32.074;2022-07-17T01:57:14;20.90;66.30
52036;DHT22;38046;49.448;32.074;2022-07-17T01:59:40;20.90;66.30
52036;DHT22;38046;49.448;32.074;2022-07-17T02:02:07;20.80;66.40
52036;DHT22;38046;49.448;32.074;2022-07-17T02:04:34;20.80;66.50
52036;DHT22;38046;49.448;32.074;2022-07-17T02:07:00;20.70;66.80
52036;DHT22;38046;49.448;32.074;2022-07-17T02:09:26;20.70;67.00
52036;DHT22;38046;49.448;32.074;2022-07-17T02:11:51;20.70;67.30
52036;DHT22;38046;49.448;32.074;2022-07-17T02:14:17;20.60;67.90
52036;DHT22;38046;49.448;32.074;2022-07-17T02:16:43;20.50;68.10
52036;DHT22;38046;49.448;32.074;2022-07-17T02:19:09;20.50;68.60
52036;DHT22;38046;49.448;32.074;2022-07-17T02:21:35;20.40;69.00
52036;DHT22;38046;49.448;32.074;2022-07-17T02:24:00;20.30;69.50
52036;DHT22;38046;49.448;32.074;2022-07-17T02:26:26;20.20;69.80
52036;DHT22;38046;49.448;32.074;2022-07-17T02:28:52;20.10;70.30
52036;DHT22;38046;49.448;32.074;2022-07-17T02:31:17;20.00;70.80
52036;DHT22;38046;49.448;32.074;2022-07-17T02:33:43;20.00;71.20
52036;DHT22;38046;49.448;32.074;2022-07-17T02:36:09;19.90;71.60
52036;DHT22;38046;49.448;32.074;2022-07-17T02:38:35;19.90;72.10
52036;DHT22;38046;49.448;32.074;2022-07-17T02:41:00;19.80;72.30
52036;DHT22;38046;49.448;32.074;2022-07-17T02:43:26;19.80;72.70
52036;DHT22;38046;49.448;32.074;2022-07-17T02:45:51;19.70;73.00
52036;DHT22;38046;49.448;32.074;2022-07-17T02:48:17;19.70;73.40
52036;DHT22;38046;49.448;32.074;2022-07-17T02:50:43;19.70;73.80
52036;DHT22;38046;49.448;32.074;2022-07-17T02:53:08;19.70;74.20
52036;DHT22;38046;49.448;32.074;2022-07-17T02:55:34;19.60;74.30
52036;DHT22;38046;49.448;32.074;2022-07-17T02:58:00;19.60;74.50
52036;DHT22;38046;49.448;32.074;2022-07-17T03:00:25;19.60;75.30
52036;DHT22;38046;49.448;32.074;2022-07-17T03:02:52;19.50;74.90
52036;DHT22;38046;49.448;32.074;2022-07-17T03:05:19;19.50;75.10
52036;DHT22;38046;49.448;32.074;2022-07-17T03:07:45;19.50;75.50
52036;DHT22;38046;49.448;32.074;2022-07-17T03:10:11;19.50;75.70
52036;DHT22;38046;49.448;32.074;2022-07-17T03:12:37;19.40;75.80
52036;DHT22;38046;49.448;32.074;2022-07-17T03:15:03;19.40;75.90
52036;DHT22;38046;49.448;32.074;2022-07-17T03:17:30;19.30;76.10
52036;DHT22;38046;49.448;32.074;2022-07-17T03:19:55;19.30;76.40
52036;DHT22;38046;49.448;32.074;2022-07-17T03:22:21;19.30;76.60
52036;DHT22;38046;49.448;32.074;2022-07-17T03:24:47;19.20;76.70
52036;DHT22;38046;49.448;32.074;2022-07-17T03:27:12;19.10;76.90
52036;DHT22;38046;49.448;32.074;2022-07-17T03:29:38;19.00;77.10
52036;DHT22;38046;49.448;32.074;2022-07-17T03:32:04;19.00;77.20
52036;DHT22;38046;49.448;32.074;2022-07-17T03:34:30;19.00;77.60
52036;DHT22;38046;49.448;32.074;2022-07-17T03:36:55;18.90;77.60
52036;DHT22;38046;49.448;32.074;2022-07-17T03:39:21;18.90;77.90
52036;DHT22;38046;49.448;32.074;2022-07-17T03:41:47;18.80;77.90
52036;DHT22;38046;49.448;32.074;2022-07-17T03:44:13;18.80;78.20
52036;DHT22;38046;49.448;32.074;2022-07-17T03:46:39;18.80;78.50
52036;DHT22;38046;49.448;32.074;2022-07-17T03:49:05;18.80;78.60
52036;DHT22;38046;49.448;32.074;2022-07-17T03:51:31;18.70;79.00
52036;DHT22;38046;49.448;32.074;2022-07-17T03:53:57;18.70;79.40
52036;DHT22;38046;49.448;32.074;2022-07-17T03:56:22;18.70;79.50
52036;DHT22;38046;49.448;32.074;2022-07-17T03:58:48;18.60;79.50
52036;DHT22;38046;49.448;32.074;2022-07-17T04:01:14;18.60;79.50
52036;DHT22;38046;49.448;32.074;2022-07-17T04:03:40;18.60;79.80
52036;DHT22;38046;49.448;32.074;2022-07-17T04:06:05;18.60;79.90
52036;DHT22;38046;49.448;32.074;2022-07-17T04:08:31;18.60;80.20
52036;DHT22;38046;49.448;32.074;2022-07-17T04:10:57;18.60;80.30
52036;DHT22;38046;49.448;32.074;2022-07-17T04:13:23;18.60;80.40
52036;DHT22;38046;49.448;32.074;2022-07-17T04:15:49;18.60;80.50
52036;DHT22;38046;49.448;32.074;2022-07-17T04:18:21;18.60;81.10
52036;DHT22;38046;49.448;32.074;2022-07-17T04:20:48;18.60;80.80
52036;DHT22;38046;49.448;32.074;2022-07-17T04:23:14;18.60;81.60
52036;DHT22;38046;49.448;32.074;2022-07-17T04:25:40;18.70;80.90
52036;DHT22;38046;49.448;32.074;2022-07-17T04:28:07;18.70;80.90
52036;DHT22;38046;49.448;32.074;2022-07-17T04:30:33;18.70;80.90
52036;DHT22;38046;49.448;32.074;2022-07-17T04:32:59;18.80;81.00
52036;DHT22;38046;49.448;32.074;2022-07-17T04:35:25;18.80;80.90
52036;DHT22;38046;49.448;32.074;2022-07-17T04:37:50;18.80;80.90
52036;DHT22;38046;49.448;32.074;2022-07-17T04:40:16;18.90;80.80
52036;DHT22;38046;49.448;32.074;2022-07-17T04:42:42;18.90;80.90
52036;DHT22;38046;49.448;32.074;2022-07-17T04:45:08;18.90;80.70
52036;DHT22;38046;49.448;32.074;2022-07-17T04:47:34;18.90;80.60
52036;DHT22;38046;49.448;32.074;2022-07-17T04:50:00;19.00;80.50
52036;DHT22;38046;49.448;32.074;2022-07-17T04:52:26;19.00;80.40
52036;DHT22;38046;49.448;32.074;2022-07-17T04:54:52;19.00;80.30
52036;DHT22;38046;49.448;32.074;2022-07-17T04:57:18;19.00;80.20
52036;DHT22;38046;49.448;32.074;2022-07-17T04:59:44;19.00;80.20
52036;DHT22;38046;49.448;32.074;2022-07-17T05:02:09;19.10;80.00
52036;DHT22;38046;49.448;32.074;2022-07-17T05:04:35;19.10;79.80
52036;DHT22;38046;49.448;32.074;2022-07-17T05:07:01;19.20;79.80
52036;DHT22;38046;49.448;32.074;2022-07-17T05:09:27;19.20;79.60
52036;DHT22;38046;49.448;32.074;2022-07-17T05:11:52;19.30;79.50
52036;DHT22;38046;49.448;32.074;2022-07-17T05:14:18;19.30;79.20
52036;DHT22;38046;49.448;32.074;2022-07-17T05:16:43;19.40;78.90
52036;DHT22;38046;49.448;32.074;2022-07-17T05:19:09;19.40;78.80
52036;DHT22;38046;49.448;32.074;2022-07-17T05:21:35;19.40;78.70
52036;DHT22;38046;49.448;32.074;2022-07-17T05:24:00;19.40;78.60
52036;DHT22;38046;49.448;32.074;2022-07-17T05:26:26;19.40;78.40
52036;DHT22;38046;49.448;32.074;2022-07-17T05:28:52;19.50;78.60
52036;DHT22;38046;49.448;32.074;2022-07-17T05:31:18;19.40;78.60
52036;DHT22;38046;49.448;32.074;2022-07-17T05:33:44;19.40;78.60
52036;DHT22;38046;49.448;32.074;2022-07-17T05:36:10;19.30;78.70
52036;DHT22;38046;49.448;32.074;2022-07-17T05:38:37;19.30;78.80
52036;DHT22;38046;49.448;32.074;2022-07-17T05:41:04;19.20;79.00
52036;DHT22;38046;49.448;32.074;2022-07-17T05:43:29;19.20;79.20
52036;DHT22;38046;49.448;32.074;2022-07-17T05:45:59;19.10;79.40
52036;DHT22;38046;49.448;32.074;2022-07-17T05:48:25;19.10;79.70
52036;DHT22;38046;49.448;32.074;2022-07-17T05:50:52;19.10;80.00
52036;DHT22;38046;49.448;32.074;2022-07-17T05:53:18;19.00;80.10
52036;DHT22;38046;49.448;32.074;2022-07-17T05:55:44;19.00;80.10
52036;DHT22;38046;49.448;32.074;2022-07-17T05:58:09;19.00;80.60
52036;DHT22;38046;49.448;32.074;2022-07-17T06:00:36;19.00;80.80
52036;DHT22;38046;49.448;32.074;2022-07-17T06:03:02;19.00;81.00
52036;DHT22;38046;49.448;32.074;2022-07-17T06:05:28;19.00;81.10
52036;DHT22;38046;49.448;32.074;2022-07-17T06:07:54;19.00;81.40
52036;DHT22;38046;49.448;32.074;2022-07-17T06:10:20;19.10;81.70
52036;DHT22;38046;49.448;32.074;2022-07-17T06:12:46;19.10;81.80
52036;DHT22;38046;49.448;32.074;2022-07-17T06:15:13;19.20;82.00
52036;DHT22;38046;49.448;32.074;2022-07-17T06:17:39;19.30;82.10
52036;DHT22;38046;49.448;32.074;2022-07-17T06:20:05;19.40;82.20
52036;DHT22;38046;49.448;32.074;2022-07-17T06:22:31;19.40;82.10
52036;DHT22;38046;49.448;32.074;2022-07-17T06:24:56;19.50;82.10
52036;DHT22;38046;49.448;32.074;2022-07-17T06:27:22;19.60;82.30
52036;DHT22;38046;49.448;32.074;2022-07-17T06:29:49;19.70;82.20
52036;DHT22;38046;49.448;32.074;2022-07-17T06:32:15;19.80;82.20
52036;DHT22;38046;49.448;32.074;2022-07-17T06:34:40;19.80;82.00
52036;DHT22;38046;49.448;32.074;2022-07-17T06:37:06;19.90;81.90
52036;DHT22;38046;49.448;32.074;2022-07-17T06:39:32;20.00;82.10
52036;DHT22;38046;49.448;32.074;2022-07-17T06:41:58;20.10;81.90
52036;DHT22;38046;49.448;32.074;2022-07-17T06:44:24;20.20;82.00
52036;DHT22;38046;49.448;32.074;2022-07-17T06:46:49;20.20;82.60
52036;DHT22;38046;49.448;32.074;2022-07-17T06:49:15;20.30;81.80
52036;DHT22;38046;49.448;32.074;2022-07-17T06:51:41;20.40;81.70
52036;DHT22;38046;49.448;32.074;2022-07-17T06:54:07;20.40;81.80
52036;DHT22;38046;49.448;32.074;2022-07-17T06:56:33;20.60;81.50
52036;DHT22;38046;49.448;32.074;2022-07-17T06:58:58;20.60;81.30
52036;DHT22;38046;49.448;32.074;2022-07-17T07:01:24;20.70;80.80
52036;DHT22;38046;49.448;32.074;2022-07-17T07:03:50;20.80;80.50
52036;DHT22;38046;49.448;32.074;2022-07-17T07:06:15;20.80;80.30
52036;DHT22;38046;49.448;32.074;2022-07-17T07:08:41;20.90;79.90
52036;DHT22;38046;49.448;32.074;2022-07-17T07:11:07;20.90;79.40
52036;DHT22;38046;49.448;32.074;2022-07-17T07:13:33;20.80;79.10
52036;DHT22;38046;49.448;32.074;2022-07-17T07:15:58;20.80;78.70
52036;DHT22;38046;49.448;32.074;2022-07-17T07:18:25;20.80;78.70
52036;DHT22;38046;49.448;32.074;2022-07-17T07:20:51;20.80;79.00
52036;DHT22;38046;49.448;32.074;2022-07-17T07:23:16;20.80;79.20
52036;DHT22;38046;49.448;32.074;2022-07-17T07:25:42;20.90;79.40
52036;DHT22;38046;49.448;32.074;2022-07-17T07:28:09;21.00;79.50
52036;DHT22;38046;49.448;32.074;2022-07-17T07:30:35;21.10;79.30
52036;DHT22;38046;49.448;32.074;2022-07-17T07:33:01;21.20;79.30
52036;DHT22;38046;49.448;32.074;2022-07-17T07:35:27;21.20;79.00
52036;DHT22;38046;49.448;32.074;2022-07-17T07:37:53;21.30;78.90
52036;DHT22;38046;49.448;32.074;2022-07-17T07:40:18;21.40;79.00
52036;DHT22;38046;49.448;32.074;2022-07-17T07:42:44;21.50;78.60
52036;DHT22;38046;49.448;32.074;2022-07-17T07:45:10;21.70;78.70
52036;DHT22;38046;49.448;32.074;2022-07-17T07:47:46;21.80;78.80
52036;DHT22;38046;49.448;32.074;2022-07-17T07:50:12;21.90;78.00
52036;DHT22;38046;49.448;32.074;2022-07-17T07:52:39;22.00;77.90
52036;DHT22;38046;49.448;32.074;2022-07-17T07:55:05;22.00;77.60
52036;DHT22;38046;49.448;32.074;2022-07-17T07:57:31;22.00;77.20
52036;DHT22;38046;49.448;32.074;2022-07-17T07:59:57;22.00;77.20
52036;DHT22;38046;49.448;32.074;2022-07-17T08:02:23;22.10;76.80
52036;DHT22;38046;49.448;32.074;2022-07-17T08:04:48;22.10;76.70
52036;DHT22;38046;49.448;32.074;2022-07-17T08:07:14;22.20;76.90
52036;DHT22;38046;49.448;32.074;2022-07-17T08:09:39;22.20;76.70
52036;DHT22;38046;49.448;32.074;2022-07-17T08:12:05;22.30;76.70
52036;DHT22;38046;49.448;32.074;2022-07-17T08:14:31;22.40;76.40
52036;DHT22;38046;49.448;32.074;2022-07-17T08:16:56;22.40;76.10
52036;DHT22;38046;49.448;32.074;2022-07-17T08:19:22;22.50;75.90
52036;DHT22;38046;49.448;32.074;2022-07-17T08:21:48;22.50;76.50
52036;DHT22;38046;49.448;32.074;2022-07-17T08:24:13;22.50;75.30
52036;DHT22;38046;49.448;32.074;2022-07-17T08:26:39;22.50;74.80
52036;DHT22;38046;49.448;32.074;2022-07-17T08:29:05;22.50;74.60
52036;DHT22;38046;49.448;32.074;2022-07-17T08:31:31;22.60;74.80
52036;DHT22;38046;49.448;32.074;2022-07-17T08:33:56;22.60;74.70
52036;DHT22;38046;49.448;32.074;2022-07-17T08:36:22;22.70;74.50
52036;DHT22;38046;49.448;32.074;2022-07-17T08:38:48;22.70;74.60
52036;DHT22;38046;49.448;32.074;2022-07-17T08:41:17;22.70;74.10
52036;DHT22;38046;49.448;32.074;2022-07-17T08:43:46;22.80;74.00
52036;DHT22;38046;49.448;32.074;2022-07-17T08:46:14;22.80;73.80
52036;DHT22;38046;49.448;32.074;2022-07-17T08:48:40;22.90;73.60
52036;DHT22;38046;49.448;32.074;2022-07-17T08:51:08;22.80;73.50
52036;DHT22;38046;49.448;32.074;2022-07-17T08:53:34;22.90;73.30
52036;DHT22;38046;49.448;32.074;2022-07-17T08:56:00;22.90;73.20
52036;DHT22;38046;49.448;32.074;2022-07-17T08:58:26;22.90;73.40
52036;DHT22;38046;49.448;32.074;2022-07-17T09:00:52;22.90;73.20
52036;DHT22;38046;49.448;32.074;2022-07-17T09:03:18;22.90;73.00
52036;DHT22;38046;49.448;32.074;2022-07-17T09:05:44;22.90;73.00
52036;DHT22;38046;49.448;32.074;2022-07-17T09:08:17;23.00;72.90
52036;DHT22;38046;49.448;32.074;2022-07-17T09:10:46;23.00;73.10
52036;DHT22;38046;49.448;32.074;2022-07-17T09:13:23;23.00;72.80
52036;DHT22;38046;49.448;32.074;2022-07-17T09:15:51;23.00;72.90
52036;DHT22;38046;49.448;32.074;2022-07-17T09:18:17;23.10;72.80
52036;DHT22;38046;49.448;32.074;2022-07-17T09:20:45;23.00;72.40
52036;DHT22;38046;49.448;32.074;2022-07-17T09:23:11;23.10;72.30
52036;DHT22;38046;49.448;32.074;2022-07-17T09:25:42;23.10;72.60
52036;DHT22;38046;49.448;32.074;2022-07-17T09:28:10;23.10;72.40
52036;DHT22;38046;49.448;32.074;2022-07-17T09:30:39;23.10;72.30
52036;DHT22;38046;49.448;32.074;2022-07-17T09:33:07;23.20;71.90
52036;DHT22;38046;49.448;32.074;2022-07-17T09:35:34;23.20;71.60
52036;DHT22;38046;49.448;32.074;2022-07-17T09:37:59;23.20;71.60
52036;DHT22;38046;49.448;32.074;2022-07-17T09:40:25;23.20;71.60
52036;DHT22;38046;49.448;32.074;2022-07-17T09:43:09;23.20;71.60
52036;DHT22;38046;49.448;32.074;2022-07-17T09:45:35;23.20;71.40
52036;DHT22;38046;49.448;32.074;2022-07-17T09:48:02;23.20;71.10
52036;DHT22;38046;49.448;32.074;2022-07-17T09:50:29;23.30;71.20
52036;DHT22;38046;49.448;32.074;2022-07-17T09:52:58;23.20;70.80
52036;DHT22;38046;49.448;32.074;2022-07-17T09:55:30;23.20;70.70
52036;DHT22;38046;49.448;32.074;2022-07-17T09:57:56;23.10;70.70
52036;DHT22;38046;49.448;32.074;2022-07-17T10:00:24;23.10;70.70
52036;DHT22;38046;49.448;32.074;2022-07-17T10:02:50;23.10;70.70
52036;DHT22;38046;49.448;32.074;2022-07-17T10:05:16;23.10;70.70
52036;DHT22;38046;49.448;32.074;2022-07-17T10:07:43;23.10;70.50
52036;DHT22;38046;49.448;32.074;2022-07-17T10:10:12;23.20;70.70
52036;DHT22;38046;49.448;32.074;2022-07-17T10:12:41;23.30;70.60
52036;DHT22;38046;49.448;32.074;2022-07-17T10:15:08;23.40;70.20
52036;DHT22;38046;49.448;32.074;2022-07-17T10:17:34;23.50;69.90
52036;DHT22;38046;49.448;32.074;2022-07-17T10:20:00;23.60;69.00
52036;DHT22;38046;49.448;32.074;2022-07-17T10:22:26;23.60;68.70
52036;DHT22;38046;49.448;32.074;2022-07-17T10:24:56;23.60;68.50
52036;DHT22;38046;49.448;32.074;2022-07-17T10:27:27;23.70;68.40
52036;DHT22;38046;49.448;32.074;2022-07-17T10:30:08;23.70;68.20
52036;DHT22;38046;49.448;32.074;2022-07-17T10:32:37;23.70;67.90
52036;DHT22;38046;49.448;32.074;2022-07-17T10:40:22;23.40;69.00
52036;DHT22;38046;49.448;32.074;2022-07-17T10:45:22;22.80;70.00
52036;DHT22;38046;49.448;32.074;2022-07-17T10:50:15;21.90;72.00
52036;DHT22;38046;49.448;32.074;2022-07-17T10:52:41;21.50;72.50
52036;DHT22;38046;49.448;32.074;2022-07-17T10:55:18;21.30;73.00
52036;DHT22;38046;49.448;32.074;2022-07-17T10:57:45;21.10;73.60
52036;DHT22;38046;49.448;32.074;2022-07-17T11:00:12;20.90;73.50
52036;DHT22;38046;49.448;32.074;2022-07-17T11:02:38;20.90;73.90
52036;DHT22;38046;49.448;32.074;2022-07-17T11:05:10;20.80;74.10
52036;DHT22;38046;49.448;32.074;2022-07-17T11:07:49;20.80;74.20
52036;DHT22;38046;49.448;32.074;2022-07-17T11:10:15;20.90;74.50
52036;DHT22;38046;49.448;32.074;2022-07-17T11:12:41;20.90;74.80
52036;DHT22;38046;49.448;32.074;2022-07-17T11:15:07;21.00;76.00
52036;DHT22;38046;49.448;32.074;2022-07-17T11:17:33;21.00;75.40
52036;DHT22;38046;49.448;32.074;2022-07-17T11:19:59;21.00;75.30
52036;DHT22;38046;49.448;32.074;2022-07-17T11:22:25;21.10;75.50
52036;DHT22;38046;49.448;32.074;2022-07-17T11:24:52;21.10;75.60
52036;DHT22;38046;49.448;32.074;2022-07-17T11:27:27;21.20;75.80
52036;DHT22;38046;49.448;32.074;2022-07-17T11:29:55;21.20;75.80
52036;DHT22;38046;49.448;32.074;2022-07-17T11:32:21;21.30;75.90
52036;DHT22;38046;49.448;32.074;2022-07-17T11:34:47;21.40;75.90
52036;DHT22;38046;49.448;32.074;2022-07-17T11:37:13;21.40;75.50
52036;DHT22;38046;49.448;32.074;2022-07-17T11:39:47;21.50;75.20
52036;DHT22;38046;49.448;32.074;2022-07-17T11:42:18;21.50;75.00
52036;DHT22;38046;49.448;32.074;2022-07-17T11:44:44;21.50;74.90
52036;DHT22;38046;49.448;32.074;2022-07-17T11:47:12;21.50;74.90
52036;DHT22;38046;49.448;32.074;2022-07-17T11:49:39;21.50;74.70
52036;DHT22;38046;49.448;32.074;2022-07-17T11:52:16;21.50;74.80
52036;DHT22;38046;49.448;32.074;2022-07-17T11:54:55;21.50;74.70
52036;DHT22;38046;49.448;32.074;2022-07-17T11:57:22;21.60;74.40
52036;DHT22;38046;49.448;32.074;2022-07-17T11:59:49;21.60;73.80
52036;DHT22;38046;49.448;32.074;2022-07-17T12:02:18;21.70;73.30
52036;DHT22;38046;49.448;32.074;2022-07-17T12:04:54;21.70;72.80
52036;DHT22;38046;49.448;32.074;2022-07-17T12:07:21;21.70;72.20
52036;DHT22;38046;49.448;32.074;2022-07-17T12:09:47;21.80;72.20
52036;DHT22;38046;49.448;32.074;2022-07-17T12:12:26;21.80;72.30
52036;DHT22;38046;49.448;32.074;2022-07-17T12:14:53;21.80;72.10
52036;DHT22;38046;49.448;32.074;2022-07-17T12:17:20;21.80;72.20
52036;DHT22;38046;49.448;32.074;2022-07-17T12:19:45;21.70;72.10
52036;DHT22;38046;49.448;32.074;2022-07-17T12:22:11;21.70;72.00
52036;DHT22;38046;49.448;32.074;2022-07-17T12:24:39;21.70;72.70
52036;DHT22;38046;49.448;32.074;2022-07-17T12:27:10;21.70;71.80
52036;DHT22;38046;49.448;32.074;2022-07-17T12:29:37;21.70;71.70
52036;DHT22;38046;49.448;32.074;2022-07-17T12:32:08;21.70;71.60
52036;DHT22;38046;49.448;32.074;2022-07-17T12:34:39;21.70;71.40
52036;DHT22;38046;49.448;32.074;2022-07-17T12:37:19;21.70;71.50
52036;DHT22;38046;49.448;32.074;2022-07-17T12:39:47;21.60;71.40
52036;DHT22;38046;49.448;32.074;2022-07-17T12:42:13;21.70;71.70
52036;DHT22;38046;49.448;32.074;2022-07-17T12:44:39;21.70;71.90
52036;DHT22;38046;49.448;32.074;2022-07-17T12:47:08;21.80;71.90
52036;DHT22;38046;49.448;32.074;2022-07-17T12:49:34;21.80;71.80
52036;DHT22;38046;49.448;32.074;2022-07-17T12:51:59;21.80;71.40
52036;DHT22;38046;49.448;32.074;2022-07-17T12:54:25;21.90;71.20
52036;DHT22;38046;49.448;32.074;2022-07-17T12:56:51;22.00;71.00
52036;DHT22;38046;49.448;32.074;2022-07-17T12:59:17;22.00;70.80
52036;DHT22;38046;49.448;32.074;2022-07-17T13:01:42;22.10;70.80
52036;DHT22;38046;49.448;32.074;2022-07-17T13:04:09;22.10;70.70
52036;DHT22;38046;49.448;32.074;2022-07-17T13:06:35;22.10;70.90
52036;DHT22;38046;49.448;32.074;2022-07-17T13:09:00;22.10;70.80
52036;DHT22;38046;49.448;32.074;2022-07-17T13:11:26;22.10;71.30
52036;DHT22;38046;49.448;32.074;2022-07-17T13:13:52;22.00;71.30
52036;DHT22;38046;49.448;32.074;2022-07-17T13:16:18;22.00;70.80
52036;DHT22;38046;49.448;32.074;2022-07-17T13:18:45;22.00;70.40
52036;DHT22;38046;49.448;32.074;2022-07-17T13:21:10;21.90;70.20
52036;DHT22;38046;49.448;32.074;2022-07-17T13:23:36;21.90;70.10
52036;DHT22;38046;49.448;32.074;2022-07-17T13:26:03;21.90;69.80
52036;DHT22;38046;49.448;32.074;2022-07-17T13:28:29;21.90;69.10
52036;DHT22;38046;49.448;32.074;2022-07-17T13:30:55;21.90;69.00
52036;DHT22;38046;49.448;32.074;2022-07-17T13:33:22;21.90;68.70
52036;DHT22;38046;49.448;32.074;2022-07-17T13:35:48;21.90;68.40
52036;DHT22;38046;49.448;32.074;2022-07-17T13:38:13;21.90;68.00
52036;DHT22;38046;49.448;32.074;2022-07-17T13:40:40;21.90;67.80
52036;DHT22;38046;49.448;32.074;2022-07-17T13:43:07;21.90;67.60
52036;DHT22;38046;49.448;32.074;2022-07-17T13:45:33;21.90;67.20
52036;DHT22;38046;49.448;32.074;2022-07-17T13:47:59;21.90;66.90
52036;DHT22;38046;49.448;32.074;2022-07-17T13:50:26;21.80;66.60
52036;DHT22;38046;49.448;32.074;2022-07-17T13:52:51;21.90;66.40
52036;DHT22;38046;49.448;32.074;2022-07-17T13:55:17;21.90;66.20
52036;DHT22;38046;49.448;32.074;2022-07-17T13:57:43;21.90;66.10
52036;DHT22;38046;49.448;32.074;2022-07-17T14:00:10;21.90;65.90
52036;DHT22;38046;49.448;32.074;2022-07-17T14:02:36;21.90;65.80
52036;DHT22;38046;49.448;32.074;2022-07-17T14:05:04;21.90;65.80
52036;DHT22;38046;49.448;32.074;2022-07-17T14:07:30;22.00;65.50
52036;DHT22;38046;49.448;32.074;2022-07-17T14:09:56;22.00;65.40
52036;DHT22;38046;49.448;32.074;2022-07-17T14:12:22;22.00;64.90
52036;DHT22;38046;49.448;32.074;2022-07-17T14:14:47;22.00;64.40
52036;DHT22;38046;49.448;32.074;2022-07-17T14:17:13;21.90;64.20
52036;DHT22;38046;49.448;32.074;2022-07-17T14:19:39;21.90;63.70
52036;DHT22;38046;49.448;32.074;2022-07-17T14:22:05;21.80;63.70
52036;DHT22;38046;49.448;32.074;2022-07-17T14:24:31;21.80;63.30
52036;DHT22;38046;49.448;32.074;2022-07-17T14:26:56;21.70;63.10
52036;DHT22;38046;49.448;32.074;2022-07-17T14:29:22;21.70;63.30
52036;DHT22;38046;49.448;32.074;2022-07-17T14:31:47;21.70;63.30
52036;DHT22;38046;49.448;32.074;2022-07-17T14:34:13;21.70;63.00
52036;DHT22;38046;49.448;32.074;2022-07-17T14:36:40;21.70;61.90
52036;DHT22;38046;49.448;32.074;2022-07-17T14:39:06;21.70;61.60
52036;DHT22;38046;49.448;32.074;2022-07-17T14:41:31;21.70;61.60
52036;DHT22;38046;49.448;32.074;2022-07-17T14:43:57;21.70;61.10
52036;DHT22;38046;49.448;32.074;2022-07-17T14:46:24;21.80;60.20
52036;DHT22;38046;49.448;32.074;2022-07-17T14:48:49;21.80;59.50
52036;DHT22;38046;49.448;32.074;2022-07-17T14:51:15;21.80;59.40
52036;DHT22;38046;49.448;32.074;2022-07-17T14:53:41;21.80;59.20
52036;DHT22;38046;49.448;32.074;2022-07-17T14:56:07;21.80;59.10
52036;DHT22;38046;49.448;32.074;2022-07-17T14:58:33;21.70;58.90
52036;DHT22;38046;49.448;32.074;2022-07-17T15:00:59;21.70;58.70
52036;DHT22;38046;49.448;32.074;2022-07-17T15:03:24;21.70;58.80
52036;DHT22;38046;49.448;32.074;2022-07-17T15:05:50;21.80;58.80
52036;DHT22;38046;49.448;32.074;2022-07-17T15:08:16;21.70;58.60
52036;DHT22;38046;49.448;32.074;2022-07-17T15:10:42;21.80;59.20
52036;DHT22;38046;49.448;32.074;2022-07-17T15:13:08;21.80;58.20
52036;DHT22;38046;49.448;32.074;2022-07-17T15:15:33;21.80;58.20
52036;DHT22;38046;49.448;32.074;2022-07-17T15:17:59;21.80;57.80
52036;DHT22;38046;49.448;32.074;2022-07-17T15:20:25;21.70;57.90
52036;DHT22;38046;49.448;32.074;2022-07-17T15:22:50;21.70;57.90